Time;durP1;ratioP1;P1;durP2;ratioP2;P2;SDS_P1;SDS_P2;PMS_P1;PMS_P2;Temp;Humidity;BMP_temperature;BMP_pressure;BME280_temperature;BME280_humidity;BME280_pressure;Samples;Min_cycle;Max_cycle;Signal;HPM_P1;HPM_P2
2021/07/12 00:00:41;;;;;;;11.02;9.32;;;614.70;2099.20;;;;;;5072559;28;20024;-63
2021/07/12 00:03:07;;;;;;;11.60;10.40;;;614.60;2150.40;;;;;;5072247;28;20446;-61
2021/07/12 00:05:34;;;;;;;10.38;9.32;;;614.60;2150.40;;;;;;5072193;28;20025;-62
2021/07/12 00:08:00;;;;;;;10.48;9.38;;;614.50;2176.00;;;;;;5072250;28;20382;-64
2021/07/12 00:10:28;;;;;;;11.95;10.32;;;614.40;2150.40;;;;;;5071933;28;20017;-62
2021/07/12 00:12:54;;;;;;;11.98;10.77;;;614.40;2124.80;;;;;;5072035;28;20033;-60
2021/07/12 00:15:22;;;;;;;16.60;9.73;;;614.50;2124.80;;;;;;5071884;28;20486;-65
2021/07/12 00:17:48;;;;;;;11.45;10.05;;;614.50;2124.80;;;;;;5071861;28;20054;-62
2021/07/12 00:20:15;;;;;;;11.23;10.13;;;614.60;2124.80;;;;;;5072067;28;20411;-60
2021/07/12 00:22:42;;;;;;;15.55;10.25;;;614.50;2150.40;;;;;;5072098;28;20060;-60
2021/07/12 00:25:09;;;;;;;12.43;10.15;;;614.50;2150.40;;;;;;5071931;28;20036;-65
2021/07/12 00:27:36;;;;;;;11.88;9.45;;;614.40;2176.00;;;;;;5071999;28;20099;-64
2021/07/12 00:30:05;;;;;;;10.43;9.45;;;614.40;2176.00;;;;;;5071819;28;20079;-63
2021/07/12 00:32:31;;;;;;;11.05;9.95;;;614.50;2176.00;;;;;;5071531;28;20021;-64
2021/07/12 00:34:56;;;;;;;12.30;9.90;;;614.50;2176.00;;;;;;5071431;28;20037;-64
2021/07/12 00:37:22;;;;;;;10.93;9.88;;;614.40;2201.60;;;;;;5071765;28;20036;-65
2021/07/12 00:39:48;;;;;;;10.55;9.05;;;614.40;2201.60;;;;;;5071510;28;20036;-65
2021/07/12 00:42:14;;;;;;;12.30;10.43;;;589.70;2201.60;;;;;;5071520;28;20103;-64
2021/07/12 00:44:42;;;;;;;11.68;10.45;;;614.40;2176.00;;;;;;5071095;28;20403;-65
2021/07/12 00:47:08;;;;;;;14.15;10.40;;;589.70;2201.60;;;;;;5071420;28;20036;-62
2021/07/12 00:49:34;;;;;;;11.52;10.10;;;589.70;2227.20;;;;;;5070890;28;20033;-64
2021/07/12 00:52:00;;;;;;;10.57;9.52;;;589.70;2201.60;;;;;;5071580;28;20113;-61
2021/07/12 00:54:29;;;;;;;15.00;10.00;;;589.70;2227.20;;;;;;5071368;28;20060;-61
2021/07/12 00:56:59;;;;;;;11.75;10.27;;;589.70;2227.20;;;;;;5071462;28;20031;-63
2021/07/12 00:59:26;;;;;;;11.55;10.30;;;589.60;2252.80;;;;;;5071186;28;20025;-61
2021/07/12 01:01:53;;;;;;;11.48;9.95;;;589.60;2252.80;;;;;;5071199;28;20016;-63
2021/07/12 01:04:19;;;;;;;11.32;10.20;;;589.50;2252.80;;;;;;5070804;28;20029;-62
2021/07/12 01:06:45;;;;;;;10.82;9.80;;;589.50;2252.80;;;;;;5071250;28;20029;-61
2021/07/12 01:09:11;;;;;;;12.68;10.05;;;589.50;2278.40;;;;;;5071208;28;20060;-63
2021/07/12 01:11:51;;;;;;;11.82;10.73;;;589.40;2304.00;;;;;;5079176;28;20031;-64
2021/07/12 01:14:29;;;;;;;14.15;10.65;;;589.20;2329.60;;;;;;5079062;28;20041;-61
2021/07/12 01:17:38;;;;;;;13.38;11.15;;;589.30;2329.60;;;;;;5080793;28;20025;-64
2021/07/12 01:20:58;;;;;;;12.30;11.00;;;589.10;2380.80;;;;;;4998027;28;20439;-60
2021/07/12 01:23:35;;;;;;;11.70;10.52;;;589.10;2380.80;;;;;;4974758;28;20077;-64
2021/07/12 01:26:27;;;;;;;14.02;12.07;;;589.00;2406.40;;;;;;4989332;28;20064;-62
2021/07/12 01:29:18;;;;;;;13.23;11.17;;;588.90;2432.00;;;;;;4989270;28;20030;-64
2021/07/12 01:32:02;;;;;;;11.73;10.63;;;564.10;2432.00;;;;;;4989345;28;20038;-64
2021/07/12 01:34:55;;;;;;;12.75;11.45;;;564.00;2432.00;;;;;;4988940;28;20030;-61
2021/07/12 01:37:37;;;;;;;12.70;11.40;;;563.70;2432.00;;;;;;4989232;28;20034;-64
2021/07/12 01:40:11;;;;;;;12.05;10.85;;;563.60;2432.00;;;;;;4989110;28;20417;-62
2021/07/12 01:43:14;;;;;;;12.82;11.52;;;563.60;2432.00;;;;;;4988769;28;20026;-64
2021/07/12 01:45:52;;;;;;;12.73;11.35;;;563.60;2432.00;;;;;;4931017;29;20036;-63
2021/07/12 01:48:37;;;;;;;11.95;10.70;;;563.60;2432.00;;;;;;4931051;29;20032;-61
2021/07/12 01:51:08;;;;;;;15.07;10.88;;;563.60;2432.00;;;;;;4931299;29;20095;-62
2021/07/12 01:54:06;;;;;;;12.80;10.77;;;563.40;2432.00;;;;;;4931207;29;20023;-65
2021/07/12 01:56:40;;;;;;;11.27;10.18;;;563.40;2432.00;;;;;;4963245;28;20139;-64
2021/07/12 01:59:17;;;;;;;13.73;11.15;;;563.40;2432.00;;;;;;5008437;28;20018;-65
2021/07/12 02:01:43;;;;;;;13.55;10.93;;;563.30;2432.00;;;;;;5008621;28;20109;-60
2021/07/12 02:04:11;;;;;;;13.65;12.10;;;563.30;2432.00;;;;;;5008426;28;20025;-64
2021/07/12 02:06:41;;;;;;;11.85;10.70;;;563.30;2432.00;;;;;;5008279;28;20053;-62
2021/07/12 02:09:09;;;;;;;11.35;10.15;;;563.30;2432.00;;;;;;5008278;28;20034;-62
2021/07/12 02:11:38;;;;;;;13.07;11.13;;;563.30;2432.00;;;;;;5008225;28;20361;-62
2021/07/12 02:14:05;;;;;;;12.95;11.60;;;563.40;2432.00;;;;;;5008301;28;20153;-61
2021/07/12 02:16:33;;;;;;;13.77;11.60;;;563.40;2432.00;;;;;;5008023;28;20053;-60
2021/07/12 02:19:00;;;;;;;11.90;10.63;;;563.40;2432.00;;;;;;5008172;28;20058;-64
2021/07/12 02:21:32;;;;;;;14.25;10.15;;;563.20;2432.00;;;;;;5023395;28;20036;-61
2021/07/12 02:24:00;;;;;;;10.52;9.50;;;563.20;2432.00;;;;;;5069899;28;20052;-60
2021/07/12 02:26:28;;;;;;;14.77;10.90;;;538.50;2406.40;;;;;;5070086;28;20024;-62
2021/07/12 02:28:55;;;;;;;11.70;10.50;;;563.20;2432.00;;;;;;5070168;28;20031;-63
2021/07/12 02:31:22;;;;;;;12.35;11.07;;;538.50;2406.40;;;;;;5069907;28;20028;-62
2021/07/12 02:33:49;;;;;;;11.77;10.68;;;538.50;2406.40;;;;;;5072576;28;20075;-59
2021/07/12 02:36:15;;;;;;;11.50;10.27;;;563.20;2432.00;;;;;;5075096;28;20028;-61
2021/07/12 02:38:41;;;;;;;11.95;10.85;;;563.30;2432.00;;;;;;5075788;28;20443;-60
2021/07/12 02:41:09;;;;;;;13.02;11.68;;;563.40;2432.00;;;;;;5075870;28;20616;-61
2021/07/12 02:43:37;;;;;;;13.57;11.30;;;563.50;2432.00;;;;;;5075134;28;20056;-59
2021/07/12 02:46:06;;;;;;;11.85;10.65;;;563.50;2432.00;;;;;;5074751;28;20029;-61
2021/07/12 02:48:32;;;;;;;12.18;11.07;;;563.60;2432.00;;;;;;5054854;28;20501;-59
2021/07/12 02:51:03;;;;;;;12.77;10.50;;;563.30;2432.00;;;;;;5054634;28;20120;-66
2021/07/12 02:53:32;;;;;;;11.32;10.25;;;563.20;2432.00;;;;;;5055368;28;20067;-60
2021/07/12 02:55:58;;;;;;;12.02;10.50;;;563.20;2432.00;;;;;;5053934;28;20094;-59
2021/07/12 02:58:24;;;;;;;12.70;10.23;;;563.20;2432.00;;;;;;5054161;28;20104;-59
2021/07/12 03:00:50;;;;;;;14.48;10.73;;;563.20;2432.00;;;;;;5053807;28;20048;-60
2021/07/12 03:03:16;;;;;;;11.93;10.68;;;563.20;2432.00;;;;;;5054246;28;20494;-60
2021/07/12 03:05:42;;;;;;;13.15;11.32;;;563.20;2432.00;;;;;;5036106;28;20037;-60
2021/07/12 03:08:15;;;;;;;12.77;11.48;;;563.20;2432.00;;;;;;5053650;28;20040;-60
2021/07/12 03:10:51;;;;;;;12.75;11.48;;;563.30;2432.00;;;;;;5053976;28;20029;-59
2021/07/12 03:13:31;;;;;;;12.75;10.80;;;563.30;2432.00;;;;;;5053876;28;20059;-60
2021/07/12 03:15:57;;;;;;;12.18;10.88;;;563.30;2432.00;;;;;;5054093;28;20044;-60
2021/07/12 03:18:28;;;;;;;12.82;11.55;;;563.40;2432.00;;;;;;5055043;28;20099;-59
2021/07/12 03:21:01;;;;;;;12.10;10.95;;;563.40;2432.00;;;;;;5055517;28;20471;-60
2021/07/12 03:23:30;;;;;;;12.43;10.88;;;563.50;2432.00;;;;;;5053982;28;20028;-60
2021/07/12 03:25:59;;;;;;;15.65;12.02;;;563.50;2432.00;;;;;;5053194;28;20118;-60
2021/07/12 03:28:26;;;;;;;11.40;10.20;;;563.50;2432.00;;;;;;5052805;28;20112;-59
2021/07/12 03:30:53;;;;;;;11.57;10.45;;;563.60;2432.00;;;;;;5053168;28;20017;-60
2021/07/12 03:33:22;;;;;;;11.90;10.65;;;563.60;2432.00;;;;;;5052771;28;20498;-60
2021/07/12 03:35:49;;;;;;;13.07;11.77;;;563.70;2432.00;;;;;;5052779;28;20368;-59
2021/07/12 03:38:18;;;;;;;12.40;11.07;;;563.90;2432.00;;;;;;5053269;28;20387;-59
2021/07/12 03:40:44;;;;;;;11.52;10.32;;;564.00;2432.00;;;;;;5052931;28;20475;-59
2021/07/12 03:43:14;;;;;;;10.80;9.70;;;564.00;2432.00;;;;;;5052177;28;20048;-58
2021/07/12 03:45:41;;;;;;;10.18;9.15;;;564.10;2432.00;;;;;;5051612;28;20037;-58
2021/07/12 03:48:10;;;;;;;12.70;10.43;;;588.80;2432.00;;;;;;5060786;28;20025;-61
2021/07/12 03:50:36;;;;;;;13.98;10.10;;;588.90;2432.00;;;;;;5068673;28;20024;-62
2021/07/12 03:53:02;;;;;;;10.73;9.40;;;589.00;2432.00;;;;;;5071114;28;20024;-59
2021/07/12 03:55:30;;;;;;;10.90;9.60;;;589.10;2432.00;;;;;;5070878;28;20827;-59
2021/07/12 03:57:58;;;;;;;10.00;9.00;;;589.30;2432.00;;;;;;5071127;28;20115;-61
2021/07/12 04:00:27;;;;;;;11.57;10.00;;;589.40;2432.00;;;;;;5070551;28;20071;-59
2021/07/12 04:02:53;;;;;;;11.15;9.52;;;589.60;2432.00;;;;;;5070336;28;20029;-59
2021/07/12 04:05:23;;;;;;;13.23;10.27;;;589.50;2432.00;;;;;;5070466;28;20025;-59
2021/07/12 04:07:50;;;;;;;11.52;9.65;;;589.70;2432.00;;;;;;5070504;28;20028;-58
2021/07/12 04:10:17;;;;;;;11.80;9.77;;;614.40;2406.40;;;;;;5070827;28;20082;-60
2021/07/12 04:12:44;;;;;;;11.13;8.80;;;614.50;2406.40;;;;;;5070771;28;20101;-60
2021/07/12 04:15:12;;;;;;;12.15;9.98;;;614.80;2355.20;;;;;;5070256;28;20102;-58
2021/07/12 04:17:39;;;;;;;11.00;9.93;;;615.10;2329.60;;;;;;5069639;28;20029;-56
2021/07/12 04:20:06;;;;;;;10.93;9.77;;;615.10;2304.00;;;;;;5070139;28;20033;-59
2021/07/12 04:22:32;;;;;;;12.75;10.27;;;615.30;2304.00;;;;;;5070587;28;20036;-59
2021/07/12 04:24:58;;;;;;;12.07;8.95;;;615.20;2329.60;;;;;;5070195;28;20028;-59
2021/07/12 04:27:24;;;;;;;13.52;10.70;;;615.20;2329.60;;;;;;5070437;28;20028;-65
2021/07/12 04:29:49;;;;;;;10.80;9.07;;;640.00;2278.40;;;;;;5069732;28;20517;-61
2021/07/12 04:32:15;;;;;;;10.82;9.23;;;640.00;2304.00;;;;;;5070152;28;20498;-62
2021/07/12 04:34:41;;;;;;;12.13;10.82;;;640.10;2278.40;;;;;;5069966;28;20040;-61
2021/07/12 04:37:07;;;;;;;11.40;9.32;;;640.20;2252.80;;;;;;5069963;28;20025;-59
2021/07/12 04:39:33;;;;;;;10.98;9.88;;;640.60;2201.60;;;;;;5070256;28;20071;-60
2021/07/12 04:41:58;;;;;;;11.77;10.68;;;640.90;2176.00;;;;;;5069755;28;20039;-58
2021/07/12 04:44:24;;;;;;;11.98;10.30;;;717.10;2022.40;;;;;;5069617;28;20048;-59
2021/07/12 04:46:50;;;;;;;11.30;10.20;;;768.60;1817.60;;;;;;5069769;28;20028;-61
2021/07/12 04:49:16;;;;;;;11.10;9.80;;;819.90;1664.00;;;;;;5069926;28;20035;-59
2021/07/12 04:51:43;;;;;;;12.27;11.18;;;870.50;1536.00;;;;;;5070121;28;20020;-59
2021/07/12 04:54:09;;;;;;;12.13;10.70;;;871.30;1459.20;;;;;;5069776;28;20359;-58
2021/07/12 04:56:35;;;;;;;12.15;10.85;;;896.90;1356.80;;;;;;5068437;28;20116;-63
2021/07/12 04:59:07;;;;;;;10.95;9.95;;;921.70;1356.80;;;;;;5069515;28;20475;-65
2021/07/12 05:01:33;;;;;;;11.68;10.70;;;922.50;1280.00;;;;;;5069661;28;20029;-66
2021/07/12 05:04:03;;;;;;;12.23;10.73;;;947.50;1254.40;;;;;;5069483;28;20037;-71
2021/07/12 05:06:29;;;;;;;11.70;10.60;;;947.90;1203.20;;;;;;5069606;28;20030;-70
2021/07/12 05:08:55;;;;;;;11.90;10.70;;;948.10;1203.20;;;;;;5070953;28;20493;-69
2021/07/12 05:11:22;;;;;;;11.85;10.75;;;973.20;1177.60;;;;;;5071175;28;20086;-70
2021/07/12 05:13:48;;;;;;;13.75;11.30;;;973.20;1177.60;;;;;;5070693;28;20037;-63
2021/07/12 05:16:13;;;;;;;12.25;10.98;;;998.80;1126.40;;;;;;5071006;28;20048;-70
2021/07/12 05:18:39;;;;;;;15.95;12.10;;;998.80;1126.40;;;;;;5070715;28;20028;-70
2021/07/12 05:21:06;;;;;;;12.27;10.88;;;999.30;1100.80;;;;;;5071180;28;20021;-69
2021/07/12 05:23:32;;;;;;;12.20;10.52;;;1024.10;1075.20;;;;;;5071078;28;20098;-70
2021/07/12 05:25:58;;;;;;;12.98;11.88;;;1024.50;1024.00;;;;;;5070790;28;20071;-69
2021/07/12 05:28:23;;;;;;;13.98;11.27;;;1049.60;1049.60;;;;;;5070716;28;20383;-70
2021/07/12 05:30:49;;;;;;;20.30;13.00;;;1024.70;1024.00;;;;;;5070508;28;20025;-69
2021/07/12 05:33:15;;;;;;;13.23;12.23;;;1049.80;1024.00;;;;;;5070809;28;20056;-70
2021/07/12 05:35:41;;;;;;;13.10;11.95;;;1049.80;998.40;;;;;;5070360;28;20033;-69
2021/07/12 05:38:09;;;;;;;13.85;12.25;;;1050.00;998.40;;;;;;5070299;28;20122;-69
2021/07/12 05:40:35;;;;;;;13.80;12.60;;;1050.10;998.40;;;;;;5070640;28;20033;-68
2021/07/12 05:43:01;;;;;;;13.07;11.93;;;1049.60;1024.00;;;;;;5070151;28;20052;-71
2021/07/12 05:45:27;;;;;;;13.63;12.23;;;1050.30;998.40;;;;;;5070201;28;20116;-68
2021/07/12 05:47:53;;;;;;;12.77;11.77;;;1050.50;998.40;;;;;;5070498;28;20100;-71
2021/07/12 05:50:19;;;;;;;13.63;12.38;;;1075.60;972.80;;;;;;5070470;28;20024;-70
2021/07/12 05:52:45;;;;;;;13.88;12.55;;;1075.40;972.80;;;;;;5070651;28;20529;-70
2021/07/12 05:55:11;;;;;;;14.57;13.35;;;1075.90;947.20;;;;;;5070315;28;20135;-70
2021/07/12 05:57:37;;;;;;;13.85;12.82;;;1075.50;972.80;;;;;;5070209;28;20020;-68
2021/07/12 06:00:08;;;;;;;14.55;13.32;;;1075.40;972.80;;;;;;5070390;28;20025;-67
2021/07/12 06:02:34;;;;;;;14.82;13.48;;;1100.80;947.20;;;;;;5070363;28;20032;-70
2021/07/12 06:04:59;;;;;;;13.95;12.68;;;1101.20;947.20;;;;;;5070326;28;20024;-70
2021/07/12 06:07:25;;;;;;;14.38;13.38;;;1101.70;921.60;;;;;;5070155;28;20074;-71
2021/07/12 06:09:51;;;;;;;15.32;14.25;;;1126.40;921.60;;;;;;5070011;28;20078;-69
2021/07/12 06:12:17;;;;;;;16.77;14.13;;;1152.10;870.40;;;;;;5070169;28;20028;-69
2021/07/12 06:14:43;;;;;;;16.05;14.85;;;1127.00;896.00;;;;;;5070200;28;20040;-70
2021/07/12 06:17:09;;;;;;;16.25;15.00;;;1127.30;896.00;;;;;;5069876;28;20044;-68
2021/07/12 06:19:35;;;;;;;16.80;15.32;;;1127.00;896.00;;;;;;5070199;28;20024;-69
2021/07/12 06:22:01;;;;;;;13.70;12.68;;;1127.10;870.40;;;;;;5069900;28;20017;-69
2021/07/12 06:24:26;;;;;;;15.60;14.25;;;1127.30;870.40;;;;;;5069907;28;20139;-61
2021/07/12 06:26:52;;;;;;;16.40;15.13;;;1152.00;870.40;;;;;;5051820;28;20062;-68
2021/07/12 06:29:20;;;;;;;18.17;16.75;;;1177.60;819.20;;;;;;5069713;28;20082;-65
2021/07/12 06:31:47;;;;;;;18.25;16.92;;;1152.60;844.80;;;;;;5070242;28;20391;-68
2021/07/12 06:34:12;;;;;;;18.52;17.20;;;1178.00;819.20;;;;;;5069836;28;20035;-71
2021/07/12 06:36:38;;;;;;;17.33;16.15;;;1178.20;793.60;;;;;;5069683;28;20032;-69
2021/07/12 06:39:04;;;;;;;16.85;15.75;;;1178.50;793.60;;;;;;5070057;28;20021;-65
2021/07/12 06:41:30;;;;;;;18.33;16.73;;;1204.10;768.00;;;;;;5069584;28;20024;-71
2021/07/12 06:43:56;;;;;;;16.77;15.68;;;1228.90;768.00;;;;;;5069780;28;20197;-69
2021/07/12 06:46:22;;;;;;;18.20;16.63;;;1229.40;742.40;;;;;;5059945;28;20029;-58
2021/07/12 06:48:48;;;;;;;16.55;15.45;;;1229.50;742.40;;;;;;5058089;28;20078;-61
2021/07/12 06:51:13;;;;;;;17.50;16.27;;;1229.30;768.00;;;;;;5059563;28;21379;-73
2021/07/12 06:53:39;;;;;;;18.88;17.70;;;1254.50;742.40;;;;;;5057239;28;20021;-61
2021/07/12 06:56:05;;;;;;;18.58;17.38;;;1254.40;742.40;;;;;;5058673;28;20039;-67
2021/07/12 06:58:31;;;;;;;37.60;20.83;;;1254.50;742.40;;;;;;5058752;28;20111;-74
2021/07/12 07:00:57;;;;;;;18.23;16.58;;;1254.40;768.00;;;;;;5056901;28;20055;-68
2021/07/12 07:03:23;;;;;;;17.70;16.17;;;1254.60;742.40;;;;;;5058574;28;20017;-61
2021/07/12 07:05:49;;;;;;;18.42;16.45;;;1254.60;742.40;;;;;;5058454;28;20548;-68
2021/07/12 07:08:15;;;;;;;17.25;16.00;;;1229.40;742.40;;;;;;5057431;28;20506;-61
2021/07/12 07:10:40;;;;;;;18.75;17.40;;;1229.70;742.40;;;;;;5059058;28;20028;-65
2021/07/12 07:13:06;;;;;;;19.30;17.90;;;1254.40;742.40;;;;;;5058121;28;20376;-71
2021/07/12 07:15:32;;;;;;;18.15;16.90;;;1229.40;742.40;;;;;;5057320;28;20507;-63
2021/07/12 07:17:59;;;;;;;16.63;15.60;;;1254.50;742.40;;;;;;5057076;28;20154;-66
2021/07/12 07:20:25;;;;;;;18.40;17.10;;;1254.50;742.40;;;;;;5059380;28;20017;-66
2021/07/12 07:22:55;;;;;;;18.90;17.63;;;1228.90;768.00;;;;;;5059630;28;20040;-69
2021/07/12 07:25:23;;;;;;;19.55;17.77;;;1229.70;716.80;;;;;;5058124;28;20036;-59
2021/07/12 07:27:50;;;;;;;18.55;17.13;;;1228.90;768.00;;;;;;5065614;28;20025;-59
2021/07/12 07:33:37;;;;;;;16.98;15.73;;;1254.50;742.40;;;;;;5076598;28;20073;-59
2021/07/12 07:36:04;;;;;;;18.48;17.15;;;1254.90;716.80;;;;;;5075891;28;20040;-59
2021/07/12 07:38:29;;;;;;;18.33;17.13;;;1254.40;742.40;;;;;;5076103;28;20107;-59
2021/07/12 07:40:55;;;;;;;17.45;16.33;;;1255.10;716.80;;;;;;5075946;28;20487;-59
2021/07/12 07:43:21;;;;;;;18.38;17.20;;;1254.60;742.40;;;;;;5075153;28;20550;-55
2021/07/12 07:49:09;;;;;;;17.60;16.17;;;1254.90;742.40;;;;;;5075680;28;20031;-58
2021/07/12 07:51:37;;;;;;;18.02;16.80;;;1280.70;691.20;;;;;;5075328;28;20104;-65
2021/07/12 07:54:04;;;;;;;18.05;16.60;;;1305.60;665.60;;;;;;5075275;28;20036;-59
2021/07/12 07:56:30;;;;;;;18.10;16.67;;;1280.50;691.20;;;;;;5075150;28;20028;-59
2021/07/12 07:58:56;;;;;;;17.23;16.02;;;1280.70;665.60;;;;;;5075165;28;20078;-58
2021/07/12 08:04:43;;;;;;;18.10;16.80;;;1280.20;691.20;;;;;;5075437;28;20469;-60
2021/07/12 08:07:09;;;;;;;18.73;17.23;;;1280.50;691.20;;;;;;5075616;28;20029;-61
2021/07/12 08:09:36;;;;;;;17.58;16.17;;;1280.70;691.20;;;;;;5075236;28;20025;-61
2021/07/12 08:12:03;;;;;;;17.55;16.15;;;1280.40;665.60;;;;;;5074965;28;20028;-66
2021/07/12 08:14:29;;;;;;;16.50;15.40;;;1255.10;691.20;;;;;;5075428;28;20039;-61
2021/07/12 08:16:55;;;;;;;15.95;14.93;;;1255.30;691.20;;;;;;5075407;28;20370;-58
2021/07/12 08:19:21;;;;;;;18.65;17.15;;;1254.80;691.20;;;;;;5075045;28;20065;-61
2021/07/12 08:21:47;;;;;;;16.45;15.35;;;1254.40;716.80;;;;;;5074974;28;20025;-59
2021/07/12 08:24:13;;;;;;;15.65;14.43;;;1177.70;768.00;;;;;;5074875;28;20032;-59
2021/07/12 08:26:38;;;;;;;14.60;13.25;;;1101.00;896.00;;;;;;5074561;28;20523;-58
2021/07/12 08:29:05;;;;;;;13.75;12.50;;;1075.20;947.20;;;;;;5066781;28;20110;-59
2021/07/12 08:31:31;;;;;;;12.48;11.38;;;1049.80;947.20;;;;;;5059476;28;20025;-63
2021/07/12 08:33:57;;;;;;;12.43;11.23;;;998.80;972.80;;;;;;5057464;28;20021;-62
2021/07/12 08:36:23;;;;;;;12.98;11.80;;;998.40;998.40;;;;;;5059930;28;20544;-58
2021/07/12 08:38:49;;;;;;;12.48;11.43;;;947.90;1024.00;;;;;;5060180;28;20390;-58
2021/07/12 08:41:16;;;;;;;12.80;11.70;;;947.70;1049.60;;;;;;5062112;28;20016;-58
2021/07/12 08:43:42;;;;;;;12.00;10.85;;;922.50;1075.20;;;;;;5060037;28;20048;-57
2021/07/12 08:46:09;;;;;;;13.75;12.13;;;921.60;1075.20;;;;;;5059527;28;20028;-59
2021/07/12 08:48:35;;;;;;;12.50;11.50;;;896.90;1075.20;;;;;;5060157;28;20024;-58
2021/07/12 08:51:01;;;;;;;12.60;11.50;;;922.00;1049.60;;;;;;5059614;28;20024;-59
2021/07/12 08:53:27;;;;;;;13.45;12.32;;;922.20;1075.20;;;;;;5059359;28;20108;-60
2021/07/12 08:55:53;;;;;;;13.48;12.18;;;922.30;1049.60;;;;;;5060137;28;20119;-59
2021/07/12 08:58:23;;;;;;;13.10;12.00;;;922.10;1100.80;;;;;;5059670;28;20075;-59
2021/07/12 09:00:53;;;;;;;15.00;11.88;;;922.00;1075.20;;;;;;5059560;28;20027;-59
2021/07/12 09:03:24;;;;;;;12.90;11.80;;;922.00;1100.80;;;;;;5059454;28;20408;-61
2021/07/12 09:06:03;;;;;;;13.82;12.52;;;922.00;1100.80;;;;;;5054629;28;20055;-58
2021/07/12 09:08:42;;;;;;;14.25;12.65;;;921.90;1152.00;;;;;;5050925;28;20039;-69
2021/07/12 09:11:21;;;;;;;13.98;12.55;;;871.30;1177.60;;;;;;5050673;28;20478;-69
2021/07/12 09:14:02;;;;;;;13.27;12.07;;;896.30;1152.00;;;;;;5051054;28;20025;-73
2021/07/12 09:16:31;;;;;;;14.68;13.38;;;896.60;1152.00;;;;;;5051104;28;20119;-60
2021/07/12 09:19:07;;;;;;;14.98;13.45;;;896.20;1152.00;;;;;;5051039;28;20028;-60
2021/07/12 09:21:38;;;;;;;15.02;12.45;;;896.40;1177.60;;;;;;5050987;28;20028;-60
2021/07/12 09:24:34;;;;;;;14.77;13.05;;;896.70;1152.00;;;;;;5051282;28;20120;-59
2021/07/12 09:27:03;;;;;;;14.57;13.30;;;896.70;1152.00;;;;;;5051257;28;20025;-71
2021/07/12 09:29:32;;;;;;;15.82;12.32;;;896.10;1203.20;;;;;;5050650;28;20036;-59
2021/07/12 09:31:59;;;;;;;14.63;13.32;;;896.60;1203.20;;;;;;5051021;28;20039;-59
2021/07/12 09:34:25;;;;;;;13.27;12.13;;;896.00;1177.60;;;;;;5050846;28;20135;-58
2021/07/12 09:36:53;;;;;;;15.13;13.70;;;896.60;1152.00;;;;;;5050726;28;20490;-58
2021/07/12 09:39:23;;;;;;;14.75;13.45;;;896.40;1177.60;;;;;;5051307;28;20053;-60
2021/07/12 09:41:51;;;;;;;14.23;12.52;;;896.60;1152.00;;;;;;5050984;28;20040;-58
2021/07/12 09:44:19;;;;;;;13.45;12.27;;;896.20;1177.60;;;;;;5050290;28;20056;-58
2021/07/12 09:46:45;;;;;;;14.52;13.05;;;896.30;1203.20;;;;;;5050788;28;20039;-60
2021/07/12 09:49:16;;;;;;;14.50;13.30;;;896.20;1152.00;;;;;;5050552;28;20029;-58
2021/07/12 09:51:43;;;;;;;13.00;11.80;;;896.00;1177.60;;;;;;5032863;28;20060;-67
2021/07/12 09:54:22;;;;;;;13.75;12.63;;;871.30;1203.20;;;;;;5050682;28;20025;-58
2021/07/12 09:56:51;;;;;;;15.20;13.90;;;896.20;1177.60;;;;;;5050520;28;20115;-58
2021/07/12 09:59:18;;;;;;;19.60;14.10;;;896.60;1177.60;;;;;;5050890;28;20569;-58
2021/07/12 10:01:53;;;;;;;14.85;13.23;;;871.20;1203.20;;;;;;5051061;28;20071;-58
2021/07/12 10:04:20;;;;;;;14.35;13.15;;;871.00;1228.80;;;;;;5050475;28;20021;-69
2021/07/12 10:06:48;;;;;;;14.35;12.73;;;870.70;1254.40;;;;;;5050723;28;20103;-60
2021/07/12 10:09:15;;;;;;;14.25;12.95;;;871.10;1203.20;;;;;;5050688;28;20032;-63
2021/07/12 10:11:45;;;;;;;14.32;13.05;;;871.30;1203.20;;;;;;5050068;28;20053;-58
2021/07/12 10:14:11;;;;;;;14.80;13.15;;;871.10;1203.20;;;;;;5050004;28;20522;-59
2021/07/12 10:16:38;;;;;;;14.50;13.02;;;896.20;1228.80;;;;;;5049791;28;20033;-59
2021/07/12 10:19:04;;;;;;;15.07;13.77;;;871.30;1254.40;;;;;;5050052;28;20467;-58
2021/07/12 10:22:00;;;;;;;15.15;13.13;;;871.20;1228.80;;;;;;5049929;28;20036;-58
2021/07/12 10:24:33;;;;;;;14.43;13.00;;;870.70;1228.80;;;;;;5045986;28;20410;-69
2021/07/12 10:27:00;;;;;;;13.80;12.73;;;870.70;1228.80;;;;;;5049844;28;20035;-58
2021/07/12 10:29:32;;;;;;;16.13;14.63;;;845.50;1280.00;;;;;;5049930;28;20166;-57
2021/07/12 10:31:59;;;;;;;14.53;13.27;;;870.70;1254.40;;;;;;5049944;28;20033;-57
2021/07/12 10:34:43;;;;;;;15.23;13.82;;;870.70;1228.80;;;;;;5050087;28;20278;-60
2021/07/12 10:37:15;;;;;;;15.98;14.48;;;870.90;1203.20;;;;;;5049787;28;20469;-58
2021/07/12 10:40:06;;;;;;;14.50;13.30;;;870.90;1228.80;;;;;;5049775;28;20025;-58
2021/07/12 10:42:44;;;;;;;13.82;12.65;;;871.10;1228.80;;;;;;5049391;28;20025;-58
2021/07/12 10:45:27;;;;;;;14.68;13.35;;;870.90;1203.20;;;;;;5049603;28;20025;-59
2021/07/12 10:48:06;;;;;;;14.65;13.23;;;871.10;1228.80;;;;;;5049863;28;20067;-61
2021/07/12 10:50:37;;;;;;;15.57;14.23;;;896.10;1203.20;;;;;;5049808;28;20025;-64
2021/07/12 10:53:26;;;;;;;16.27;14.23;;;896.70;1177.60;;;;;;5050015;28;20052;-58
2021/07/12 10:55:58;;;;;;;14.90;12.73;;;896.30;1177.60;;;;;;5053566;28;20120;-62
2021/07/12 10:58:26;;;;;;;14.88;13.48;;;896.30;1177.60;;;;;;5053789;28;20028;-58
2021/07/12 11:00:55;;;;;;;15.00;13.68;;;896.20;1203.20;;;;;;5053799;28;20410;-59
2021/07/12 11:03:35;;;;;;;17.30;15.55;;;896.10;1228.80;;;;;;5053402;28;20075;-58
2021/07/12 11:06:08;;;;;;;15.02;13.52;;;871.30;1228.80;;;;;;5053353;28;20489;-60
2021/07/12 11:08:46;;;;;;;15.77;14.20;;;896.20;1203.20;;;;;;5053615;28;20029;-58
2021/07/12 11:11:41;;;;;;;16.83;14.40;;;896.30;1177.60;;;;;;5053474;28;20036;-58
2021/07/12 11:14:08;;;;;;;17.95;15.68;;;896.70;1203.20;;;;;;5053657;28;20043;-70
2021/07/12 11:16:48;;;;;;;18.48;16.02;;;896.90;1203.20;;;;;;5053426;28;20387;-57
2021/07/12 11:19:24;;;;;;;17.05;15.45;;;871.10;1203.20;;;;;;5036430;28;20040;-57
2021/07/12 11:21:51;;;;;;;16.80;15.38;;;870.70;1228.80;;;;;;5053386;28;20463;-60
2021/07/12 11:24:24;;;;;;;15.18;13.73;;;870.50;1280.00;;;;;;5053135;28;20037;-58
2021/07/12 11:26:50;;;;;;;17.38;15.70;;;870.70;1254.40;;;;;;5053116;28;20398;-57
2021/07/12 11:29:28;;;;;;;17.15;15.68;;;871.00;1228.80;;;;;;5053890;28;20028;-71
2021/07/12 11:32:05;;;;;;;17.65;16.08;;;871.10;1228.80;;;;;;5035201;28;20443;-72
2021/07/12 11:34:36;;;;;;;17.17;15.63;;;871.20;1228.80;;;;;;5052745;28;20112;-57
2021/07/12 11:37:11;;;;;;;24.77;17.23;;;896.00;1254.40;;;;;;5053260;28;20423;-59
2021/07/12 11:39:46;;;;;;;18.95;15.20;;;871.30;1228.80;;;;;;5053216;28;20421;-69
2021/07/12 11:42:21;;;;;;;17.55;15.95;;;871.00;1254.40;;;;;;5034661;28;20087;-59
2021/07/12 11:45:09;;;;;;;17.23;15.82;;;845.70;1280.00;;;;;;5053020;28;20115;-57
2021/07/12 11:47:43;;;;;;;19.00;17.10;;;870.40;1280.00;;;;;;5051701;28;20033;-64
2021/07/12 11:50:15;;;;;;;19.33;17.10;;;845.70;1280.00;;;;;;5052708;28;20524;-60
2021/07/12 11:52:47;;;;;;;18.05;16.35;;;845.70;1280.00;;;;;;5052677;28;20079;-59
2021/07/12 11:55:20;;;;;;;18.10;16.53;;;870.50;1254.40;;;;;;5052642;28;20483;-59
2021/07/12 11:57:49;;;;;;;17.77;16.17;;;845.70;1280.00;;;;;;5057459;28;20021;-59
2021/07/12 12:00:24;;;;;;;17.95;16.45;;;870.50;1254.40;;;;;;5063076;28;20036;-59
2021/07/12 12:02:59;;;;;;;17.23;15.55;;;870.50;1254.40;;;;;;5062856;28;20051;-63
2021/07/12 12:05:27;;;;;;;18.15;16.38;;;870.70;1254.40;;;;;;5062237;28;20026;-59
2021/07/12 12:07:57;;;;;;;21.40;16.75;;;870.60;1280.00;;;;;;5062898;28;20021;-59
2021/07/12 12:10:27;;;;;;;19.15;17.15;;;870.40;1280.00;;;;;;5058099;28;20025;-58
2021/07/12 12:13:02;;;;;;;17.77;16.08;;;870.70;1280.00;;;;;;5052381;28;20025;-59
2021/07/12 12:15:30;;;;;;;17.63;16.17;;;870.50;1254.40;;;;;;5052147;28;20548;-58
2021/07/12 12:17:59;;;;;;;17.23;15.57;;;870.40;1280.00;;;;;;5052280;28;20029;-57
2021/07/12 12:20:35;;;;;;;18.42;16.67;;;870.50;1254.40;;;;;;5052042;28;20036;-59
2021/07/12 12:23:19;;;;;;;19.10;17.50;;;870.50;1280.00;;;;;;5052139;28;20100;-60